sensor_id;sensor_type;location;lat;lon;timestamp;temperature;humidity
65419;DHT22;52027;50.658;14.004;2022-12-19T00:02:06;20.69;28.87
65419;DHT22;52027;50.658;14.004;2022-12-19T00:04:32;20.70;28.82
65419;DHT22;52027;50.658;14.004;2022-12-19T00:06:57;20.67;28.74
65419;DHT22;52027;50.658;14.004;2022-12-19T00:09:23;20.67;28.87
65419;DHT22;52027;50.658;14.004;2022-12-19T00:11:49;20.69;28.81
65419;DHT22;52027;50.658;14.004;2022-12-19T00:14:14;20.66;28.82
65419;DHT22;52027;50.658;14.004;2022-12-19T00:16:40;20.70;28.81
65419;DHT22;52027;50.658;14.004;2022-12-19T00:19:05;20.67;28.81
65419;DHT22;52027;50.658;14.004;2022-12-19T00:21:32;20.67;28.78
65419;DHT22;52027;50.658;14.004;2022-12-19T00:23:57;20.67;28.84
65419;DHT22;52027;50.658;14.004;2022-12-19T00:28:55;20.67;28.81
65419;DHT22;52027;50.658;14.004;2022-12-19T00:31:24;20.67;28.82
65419;DHT22;52027;50.658;14.004;2022-12-19T00:33:49;20.67;28.78
65419;DHT22;52027;50.658;14.004;2022-12-19T00:36:19;20.63;28.77
65419;DHT22;52027;50.658;14.004;2022-12-19T00:38:45;20.66;28.79
65419;DHT22;52027;50.658;14.004;2022-12-19T00:41:11;20.65;28.77
65419;DHT22;52027;50.658;14.004;2022-12-19T00:43:37;20.66;28.84
65419;DHT22;52027;50.658;14.004;2022-12-19T00:46:09;20.65;28.79
65419;DHT22;52027;50.658;14.004;2022-12-19T00:48:35;20.63;28.82
65419;DHT22;52027;50.658;14.004;2022-12-19T00:51:12;20.66;28.77
65419;DHT22;52027;50.658;14.004;2022-12-19T00:53:38;20.65;28.80
65419;DHT22;52027;50.658;14.004;2022-12-19T00:56:06;20.65;28.84
65419;DHT22;52027;50.658;14.004;2022-12-19T00:58:32;20.65;28.77
65419;DHT22;52027;50.658;14.004;2022-12-19T01:00:57;20.62;28.76
65419;DHT22;52027;50.658;14.004;2022-12-19T01:03:24;20.65;28.79
65419;DHT22;52027;50.658;14.004;2022-12-19T01:05:50;20.62;28.82
65419;DHT22;52027;50.658;14.004;2022-12-19T01:08:19;20.62;28.72
65419;DHT22;52027;50.658;14.004;2022-12-19T01:10:46;20.62;28.80
65419;DHT22;52027;50.658;14.004;2022-12-19T01:13:12;20.62;28.77
65419;DHT22;52027;50.658;14.004;2022-12-19T01:15:38;20.63;28.77
65419;DHT22;52027;50.658;14.004;2022-12-19T01:18:04;20.59;28.82
65419;DHT22;52027;50.658;14.004;2022-12-19T01:20:29;20.62;28.77
65419;DHT22;52027;50.658;14.004;2022-12-19T01:22:55;20.62;28.79
65419;DHT22;52027;50.658;14.004;2022-12-19T01:25:20;20.62;28.76
65419;DHT22;52027;50.658;14.004;2022-12-19T01:27:45;20.62;28.82
65419;DHT22;52027;50.658;14.004;2022-12-19T01:30:11;20.59;28.79
65419;DHT22;52027;50.658;14.004;2022-12-19T01:32:36;20.59;28.80
65419;DHT22;52027;50.658;14.004;2022-12-19T01:35:02;20.60;28.78
65419;DHT22;52027;50.658;14.004;2022-12-19T01:37:28;20.59;28.82
65419;DHT22;52027;50.658;14.004;2022-12-19T01:39:53;20.59;28.78
65419;DHT22;52027;50.658;14.004;2022-12-19T01:42:20;20.57;28.83
65419;DHT22;52027;50.658;14.004;2022-12-19T01:45:16;20.59;28.82
65419;DHT22;52027;50.658;14.004;2022-12-19T01:47:50;20.57;28.80
65419;DHT22;52027;50.658;14.004;2022-12-19T01:50:20;20.60;28.83
65419;DHT22;52027;50.658;14.004;2022-12-19T01:52:47;20.56;28.82
65419;DHT22;52027;50.658;14.004;2022-12-19T01:55:13;20.56;28.86
65419;DHT22;52027;50.658;14.004;2022-12-19T01:57:39;20.56;28.82
65419;DHT22;52027;50.658;14.004;2022-12-19T02:00:05;20.60;28.85
65419;DHT22;52027;50.658;14.004;2022-12-19T02:02:43;20.63;28.82
65419;DHT22;52027;50.658;14.004;2022-12-19T02:05:10;20.57;28.83
65419;DHT22;52027;50.658;14.004;2022-12-19T02:07:36;20.60;28.87
65419;DHT22;52027;50.658;14.004;2022-12-19T02:10:03;20.57;28.80
65419;DHT22;52027;50.658;14.004;2022-12-19T02:12:30;20.57;28.79
65419;DHT22;52027;50.658;14.004;2022-12-19T02:14:58;20.59;28.80
65419;DHT22;52027;50.658;14.004;2022-12-19T02:31:30;20.62;28.74
65419;DHT22;52027;50.658;14.004;2022-12-19T02:34:42;20.63;28.74
65419;DHT22;52027;50.658;14.004;2022-12-19T02:37:20;20.60;28.77
65419;DHT22;52027;50.658;14.004;2022-12-19T02:39:50;20.62;28.71
65419;DHT22;52027;50.658;14.004;2022-12-19T02:42:27;20.63;28.73
65419;DHT22;52027;50.658;14.004;2022-12-19T02:44:53;20.62;28.74
65419;DHT22;52027;50.658;14.004;2022-12-19T02:47:19;20.62;28.79
65419;DHT22;52027;50.658;14.004;2022-12-19T02:49:45;20.62;28.74
65419;DHT22;52027;50.658;14.004;2022-12-19T02:54:45;20.65;28.68
65419;DHT22;52027;50.658;14.004;2022-12-19T02:57:20;20.66;28.68
65419;DHT22;52027;50.658;14.004;2022-12-19T03:08:01;20.67;28.74
65419;DHT22;52027;50.658;14.004;2022-12-19T03:10:30;20.72;28.71
65419;DHT22;52027;50.658;14.004;2022-12-19T03:13:07;20.66;28.73
65419;DHT22;52027;50.658;14.004;2022-12-19T03:15:33;20.67;28.74
65419;DHT22;52027;50.658;14.004;2022-12-19T03:17:59;20.65;28.79
65419;DHT22;52027;50.658;14.004;2022-12-19T03:23:04;20.65;28.74
65419;DHT22;52027;50.658;14.004;2022-12-19T03:25:30;20.65;28.74
65419;DHT22;52027;50.658;14.004;2022-12-19T03:28:00;20.65;28.74
65419;DHT22;52027;50.658;14.004;2022-12-19T03:30:27;20.66;28.80
65419;DHT22;52027;50.658;14.004;2022-12-19T03:32:53;20.66;28.73
65419;DHT22;52027;50.658;14.004;2022-12-19T03:35:21;20.67;28.71
65419;DHT22;52027;50.658;14.004;2022-12-19T03:37:49;20.66;28.76
65419;DHT22;52027;50.658;14.004;2022-12-19T03:40:19;20.67;28.73
65419;DHT22;52027;50.658;14.004;2022-12-19T03:42:46;20.69;28.72
65419;DHT22;52027;50.658;14.004;2022-12-19T03:45:55;20.67;28.67
65419;DHT22;52027;50.658;14.004;2022-12-19T03:48:31;20.69;28.65
65419;DHT22;52027;50.658;14.004;2022-12-19T03:51:06;20.69;28.68
65419;DHT22;52027;50.658;14.004;2022-12-19T03:56:28;20.69;28.65
65419;DHT22;52027;50.658;14.004;2022-12-19T03:59:06;20.67;28.67
65419;DHT22;52027;50.658;14.004;2022-12-19T04:01:33;20.67;28.65
65419;DHT22;52027;50.658;14.004;2022-12-19T04:03:59;20.69;28.67
65419;DHT22;52027;50.658;14.004;2022-12-19T04:06:28;20.70;28.63
65419;DHT22;52027;50.658;14.004;2022-12-19T04:08:56;20.69;28.65
65419;DHT22;52027;50.658;14.004;2022-12-19T04:11:22;20.70;28.70
65419;DHT22;52027;50.658;14.004;2022-12-19T04:13:56;20.69;28.62
65419;DHT22;52027;50.658;14.004;2022-12-19T04:16:34;20.69;28.65
65419;DHT22;52027;50.658;14.004;2022-12-19T04:19:30;20.63;28.66
65419;DHT22;52027;50.658;14.004;2022-12-19T04:22:07;20.66;28.62
65419;DHT22;52027;50.658;14.004;2022-12-19T04:24:36;20.63;28.59
65419;DHT22;52027;50.658;14.004;2022-12-19T04:27:04;20.65;28.60
65419;DHT22;52027;50.658;14.004;2022-12-19T04:29:33;20.66;28.67
65419;DHT22;52027;50.658;14.004;2022-12-19T04:32:01;20.67;28.54
65419;DHT22;52027;50.658;14.004;2022-12-19T04:34:26;20.65;28.51
65419;DHT22;52027;50.658;14.004;2022-12-19T04:36:52;20.66;28.63
65419;DHT22;52027;50.658;14.004;2022-12-19T04:39:17;20.67;28.60
65419;DHT22;52027;50.658;14.004;2022-12-19T04:41:43;20.67;28.49
65419;DHT22;52027;50.658;14.004;2022-12-19T04:44:08;20.67;28.49
65419;DHT22;52027;50.658;14.004;2022-12-19T04:46:33;20.67;28.49
65419;DHT22;52027;50.658;14.004;2022-12-19T04:48:59;20.66;28.55
65419;DHT22;52027;50.658;14.004;2022-12-19T04:51:24;20.67;28.46
65419;DHT22;52027;50.658;14.004;2022-12-19T04:53:50;20.69;28.45
65419;DHT22;52027;50.658;14.004;2022-12-19T04:56:15;20.67;28.45
65419;DHT22;52027;50.658;14.004;2022-12-19T04:58:40;20.69;28.45
65419;DHT22;52027;50.658;14.004;2022-12-19T05:01:07;20.69;28.46
65419;DHT22;52027;50.658;14.004;2022-12-19T05:03:33;20.66;28.50
65419;DHT22;52027;50.658;14.004;2022-12-19T05:06:11;20.66;28.43
65419;DHT22;52027;50.658;14.004;2022-12-19T05:08:38;20.65;28.43
65419;DHT22;52027;50.658;14.004;2022-12-19T05:11:05;20.67;28.48
65419;DHT22;52027;50.658;14.004;2022-12-19T05:13:31;20.67;28.46
65419;DHT22;52027;50.658;14.004;2022-12-19T05:16:02;20.66;28.41
65419;DHT22;52027;50.658;14.004;2022-12-19T05:18:28;20.65;28.47
65419;DHT22;52027;50.658;14.004;2022-12-19T05:20:57;20.65;28.54
65419;DHT22;52027;50.658;14.004;2022-12-19T05:23:23;20.67;28.59
65419;DHT22;52027;50.658;14.004;2022-12-19T05:25:49;20.65;28.68
65419;DHT22;52027;50.658;14.004;2022-12-19T05:28:15;20.66;28.62
65419;DHT22;52027;50.658;14.004;2022-12-19T05:30:41;20.67;28.70
65419;DHT22;52027;50.658;14.004;2022-12-19T05:33:07;20.69;28.72
65419;DHT22;52027;50.658;14.004;2022-12-19T05:35:33;20.69;28.68
65419;DHT22;52027;50.658;14.004;2022-12-19T05:37:59;20.67;28.63
65419;DHT22;52027;50.658;14.004;2022-12-19T05:40:24;20.70;28.64
65419;DHT22;52027;50.658;14.004;2022-12-19T05:42:50;20.69;28.65
65419;DHT22;52027;50.658;14.004;2022-12-19T05:45:15;20.72;28.67
65419;DHT22;52027;50.658;14.004;2022-12-19T05:47:40;20.72;28.73
65419;DHT22;52027;50.658;14.004;2022-12-19T05:50:08;20.70;28.68
65419;DHT22;52027;50.658;14.004;2022-12-19T05:52:33;20.72;28.70
65419;DHT22;52027;50.658;14.004;2022-12-19T05:54:59;20.70;28.70
65419;DHT22;52027;50.658;14.004;2022-12-19T05:57:24;20.75;28.80
65419;DHT22;52027;50.658;14.004;2022-12-19T05:59:49;20.75;28.88
65419;DHT22;52027;50.658;14.004;2022-12-19T06:02:15;20.73;28.80
65419;DHT22;52027;50.658;14.004;2022-12-19T06:04:40;20.76;28.75
65419;DHT22;52027;50.658;14.004;2022-12-19T06:07:05;20.76;28.77
65419;DHT22;52027;50.658;14.004;2022-12-19T06:09:31;20.77;28.80
65419;DHT22;52027;50.658;14.004;2022-12-19T06:11:56;20.81;28.86
65419;DHT22;52027;50.658;14.004;2022-12-19T06:14:21;20.80;28.94
65419;DHT22;52027;50.658;14.004;2022-12-19T06:16:47;20.81;29.01
65419;DHT22;52027;50.658;14.004;2022-12-19T06:19:15;20.81;29.15
65419;DHT22;52027;50.658;14.004;2022-12-19T06:21:40;20.81;29.18
65419;DHT22;52027;50.658;14.004;2022-12-19T06:24:06;20.81;29.21
65419;DHT22;52027;50.658;14.004;2022-12-19T06:26:31;20.81;29.20
65419;DHT22;52027;50.658;14.004;2022-12-19T06:28:57;20.83;29.20
65419;DHT22;52027;50.658;14.004;2022-12-19T06:31:23;20.81;29.18
65419;DHT22;52027;50.658;14.004;2022-12-19T06:33:49;20.80;29.25
65419;DHT22;52027;50.658;14.004;2022-12-19T06:36:24;20.83;29.32
65419;DHT22;52027;50.658;14.004;2022-12-19T06:38:50;20.87;29.26
65419;DHT22;52027;50.658;14.004;2022-12-19T06:41:16;20.84;29.49
65419;DHT22;52027;50.658;14.004;2022-12-19T06:44:04;20.83;29.53
65419;DHT22;52027;50.658;14.004;2022-12-19T06:46:30;20.83;29.60
65419;DHT22;52027;50.658;14.004;2022-12-19T06:48:56;20.84;29.94
65419;DHT22;52027;50.658;14.004;2022-12-19T06:51:21;20.84;30.27
65419;DHT22;52027;50.658;14.004;2022-12-19T06:53:47;20.84;30.38
65419;DHT22;52027;50.658;14.004;2022-12-19T06:56:14;20.87;30.35
65419;DHT22;52027;50.658;14.004;2022-12-19T06:58:40;20.84;30.47
65419;DHT22;52027;50.658;14.004;2022-12-19T07:01:05;20.84;30.65
65419;DHT22;52027;50.658;14.004;2022-12-19T07:03:40;20.86;30.66
65419;DHT22;52027;50.658;14.004;2022-12-19T07:06:06;20.87;30.66
65419;DHT22;52027;50.658;14.004;2022-12-19T07:08:32;20.88;30.59
65419;DHT22;52027;50.658;14.004;2022-12-19T07:10:58;20.88;30.43
65419;DHT22;52027;50.658;14.004;2022-12-19T07:13:23;20.88;30.41
65419;DHT22;52027;50.658;14.004;2022-12-19T07:15:50;20.88;30.63
65419;DHT22;52027;50.658;14.004;2022-12-19T07:18:16;20.91;30.65
65419;DHT22;52027;50.658;14.004;2022-12-19T07:20:41;20.91;30.79
65419;DHT22;52027;50.658;14.004;2022-12-19T07:23:13;20.88;30.81
65419;DHT22;52027;50.658;14.004;2022-12-19T07:25:38;20.87;30.54
65419;DHT22;52027;50.658;14.004;2022-12-19T07:28:05;20.91;30.60
65419;DHT22;52027;50.658;14.004;2022-12-19T07:30:31;20.91;30.81
65419;DHT22;52027;50.658;14.004;2022-12-19T07:32:56;20.88;30.95
65419;DHT22;52027;50.658;14.004;2022-12-19T07:35:22;20.90;31.05
65419;DHT22;52027;50.658;14.004;2022-12-19T07:37:48;20.90;31.10
65419;DHT22;52027;50.658;14.004;2022-12-19T07:40:14;20.90;31.19
65419;DHT22;52027;50.658;14.004;2022-12-19T07:42:40;20.90;31.30
65419;DHT22;52027;50.658;14.004;2022-12-19T07:45:05;20.94;31.32
65419;DHT22;52027;50.658;14.004;2022-12-19T07:47:31;20.94;31.25
65419;DHT22;52027;50.658;14.004;2022-12-19T07:49:56;20.94;31.32
65419;DHT22;52027;50.658;14.004;2022-12-19T07:52:21;20.94;31.52
65419;DHT22;52027;50.658;14.004;2022-12-19T07:54:47;20.97;31.53
65419;DHT22;52027;50.658;14.004;2022-12-19T07:57:12;20.94;31.32
65419;DHT22;52027;50.658;14.004;2022-12-19T07:59:37;20.96;31.32
65419;DHT22;52027;50.658;14.004;2022-12-19T08:02:03;20.98;31.41
65419;DHT22;52027;50.658;14.004;2022-12-19T08:04:28;20.98;31.39
65419;DHT22;52027;50.658;14.004;2022-12-19T08:06:54;21.03;31.44
65419;DHT22;52027;50.658;14.004;2022-12-19T08:09:19;21.06;31.33
65419;DHT22;52027;50.658;14.004;2022-12-19T08:11:44;21.11;31.26
65419;DHT22;52027;50.658;14.004;2022-12-19T08:14:10;21.11;31.32
65419;DHT22;52027;50.658;14.004;2022-12-19T08:16:35;21.12;31.36
65419;DHT22;52027;50.658;14.004;2022-12-19T08:19:01;21.21;31.40
65419;DHT22;52027;50.658;14.004;2022-12-19T08:21:26;21.21;31.37
65419;DHT22;52027;50.658;14.004;2022-12-19T08:23:52;21.24;31.63
65419;DHT22;52027;50.658;14.004;2022-12-19T08:26:19;21.28;31.61
65419;DHT22;52027;50.658;14.004;2022-12-19T08:28:56;21.31;31.58
65419;DHT22;52027;50.658;14.004;2022-12-19T08:31:24;21.31;31.47
65419;DHT22;52027;50.658;14.004;2022-12-19T08:33:53;21.34;31.54
65419;DHT22;52027;50.658;14.004;2022-12-19T08:36:20;21.34;31.55
65419;DHT22;52027;50.658;14.004;2022-12-19T08:38:46;21.37;31.59
65419;DHT22;52027;50.658;14.004;2022-12-19T08:41:13;21.44;31.45
65419;DHT22;52027;50.658;14.004;2022-12-19T08:43:39;21.41;31.45
65419;DHT22;52027;50.658;14.004;2022-12-19T08:46:05;21.44;31.45
65419;DHT22;52027;50.658;14.004;2022-12-19T08:48:31;21.46;31.30
65419;DHT22;52027;50.658;14.004;2022-12-19T08:50:59;21.48;31.50
65419;DHT22;52027;50.658;14.004;2022-12-19T08:53:26;21.48;31.49
65419;DHT22;52027;50.658;14.004;2022-12-19T08:56:19;21.51;31.58
65419;DHT22;52027;50.658;14.004;2022-12-19T08:58:45;21.49;31.76
65419;DHT22;52027;50.658;14.004;2022-12-19T09:01:12;21.49;31.77
65419;DHT22;52027;50.658;14.004;2022-12-19T09:03:39;21.51;31.82
65419;DHT22;52027;50.658;14.004;2022-12-19T09:06:07;21.51;31.82
65419;DHT22;52027;50.658;14.004;2022-12-19T09:08:34;21.52;31.87
65419;DHT22;52027;50.658;14.004;2022-12-19T09:11:17;21.53;31.55
65419;DHT22;52027;50.658;14.004;2022-12-19T09:13:44;21.52;31.33
65419;DHT22;52027;50.658;14.004;2022-12-19T09:18:40;21.55;31.35
65419;DHT22;52027;50.658;14.004;2022-12-19T09:21:06;21.53;31.44
65419;DHT22;52027;50.658;14.004;2022-12-19T09:23:32;21.56;31.35
65419;DHT22;52027;50.658;14.004;2022-12-19T09:26:05;21.53;31.38
65419;DHT22;52027;50.658;14.004;2022-12-19T09:28:32;21.56;31.18
65419;DHT22;52027;50.658;14.004;2022-12-19T09:30:59;21.55;31.21
65419;DHT22;52027;50.658;14.004;2022-12-19T09:33:25;21.55;31.15
65419;DHT22;52027;50.658;14.004;2022-12-19T09:35:53;21.58;31.16
65419;DHT22;52027;50.658;14.004;2022-12-19T09:38:19;21.58;31.07
65419;DHT22;52027;50.658;14.004;2022-12-19T09:49:32;21.62;31.21
65419;DHT22;52027;50.658;14.004;2022-12-19T09:52:22;21.59;31.23
65419;DHT22;52027;50.658;14.004;2022-12-19T09:57:40;21.61;31.18
65419;DHT22;52027;50.658;14.004;2022-12-19T10:05:13;21.63;31.18
65419;DHT22;52027;50.658;14.004;2022-12-19T10:07:39;21.62;31.14
65419;DHT22;52027;50.658;14.004;2022-12-19T10:10:05;21.66;31.27
65419;DHT22;52027;50.658;14.004;2022-12-19T10:15:39;21.69;31.39
65419;DHT22;52027;50.658;14.004;2022-12-19T10:26:48;21.65;32.02
65419;DHT22;52027;50.658;14.004;2022-12-19T10:29:34;21.66;31.99
65419;DHT22;52027;50.658;14.004;2022-12-19T10:34:49;21.65;32.04
65419;DHT22;52027;50.658;14.004;2022-12-19T10:37:20;21.67;32.15
65419;DHT22;52027;50.658;14.004;2022-12-19T10:39:54;21.69;31.96
65419;DHT22;52027;50.658;14.004;2022-12-19T10:42:38;21.71;31.96
65419;DHT22;52027;50.658;14.004;2022-12-19T10:45:13;21.67;32.09
65419;DHT22;52027;50.658;14.004;2022-12-19T10:47:40;21.71;32.31
65419;DHT22;52027;50.658;14.004;2022-12-19T10:50:10;21.71;32.28
65419;DHT22;52027;50.658;14.004;2022-12-19T11:03:26;21.69;32.27
65419;DHT22;52027;50.658;14.004;2022-12-19T11:05:54;21.69;32.23
65419;DHT22;52027;50.658;14.004;2022-12-19T11:08:23;21.67;32.20
65419;DHT22;52027;50.658;14.004;2022-12-19T11:16:00;21.67;32.21
65419;DHT22;52027;50.658;14.004;2022-12-19T11:21:27;21.69;32.31
65419;DHT22;52027;50.658;14.004;2022-12-19T11:29:22;21.72;33.08
65419;DHT22;52027;50.658;14.004;2022-12-19T11:31:54;21.71;33.19
65419;DHT22;52027;50.658;14.004;2022-12-19T11:34:22;21.71;33.15
65419;DHT22;52027;50.658;14.004;2022-12-19T11:37:14;21.71;33.10
65419;DHT22;52027;50.658;14.004;2022-12-19T11:39:42;21.72;33.11
65419;DHT22;52027;50.658;14.004;2022-12-19T11:50:57;21.71;32.82
65419;DHT22;52027;50.658;14.004;2022-12-19T11:53:29;21.69;32.67
65419;DHT22;52027;50.658;14.004;2022-12-19T11:55:58;21.71;32.70
65419;DHT22;52027;50.658;14.004;2022-12-19T11:58:27;21.69;32.64
65419;DHT22;52027;50.658;14.004;2022-12-19T12:03:43;21.67;32.47
65419;DHT22;52027;50.658;14.004;2022-12-19T12:06:16;21.69;32.40
65419;DHT22;52027;50.658;14.004;2022-12-19T12:14:18;21.67;32.39
65419;DHT22;52027;50.658;14.004;2022-12-19T12:20:09;21.66;32.67
65419;DHT22;52027;50.658;14.004;2022-12-19T12:31:40;21.63;32.46
65419;DHT22;52027;50.658;14.004;2022-12-19T12:45:38;21.62;32.74
65419;DHT22;52027;50.658;14.004;2022-12-19T12:48:18;21.62;32.95
65419;DHT22;52027;50.658;14.004;2022-12-19T12:50:46;21.63;32.82
65419;DHT22;52027;50.658;14.004;2022-12-19T12:53:16;21.63;32.68
65419;DHT22;52027;50.658;14.004;2022-12-19T12:55:44;21.63;32.59
65419;DHT22;52027;50.658;14.004;2022-12-19T13:01:10;21.65;32.52
65419;DHT22;52027;50.658;14.004;2022-12-19T13:03:36;21.65;32.57
65419;DHT22;52027;50.658;14.004;2022-12-19T13:06:06;21.65;32.64
65419;DHT22;52027;50.658;14.004;2022-12-19T13:08:46;21.67;32.62
65419;DHT22;52027;50.658;14.004;2022-12-19T13:14:03;21.69;32.52
65419;DHT22;52027;50.658;14.004;2022-12-19T13:38:19;21.71;32.50
65419;DHT22;52027;50.658;14.004;2022-12-19T13:40:54;21.72;32.64
65419;DHT22;52027;50.658;14.004;2022-12-19T13:43:24;21.69;32.64
65419;DHT22;52027;50.658;14.004;2022-12-19T13:48:56;21.71;32.77
65419;DHT22;52027;50.658;14.004;2022-12-19T13:51:25;21.69;32.77
65419;DHT22;52027;50.658;14.004;2022-12-19T13:53:52;21.71;32.70
65419;DHT22;52027;50.658;14.004;2022-12-19T13:56:19;21.69;32.58
65419;DHT22;52027;50.658;14.004;2022-12-19T13:58:57;21.71;32.66
65419;DHT22;52027;50.658;14.004;2022-12-19T14:01:29;21.67;32.74
65419;DHT22;52027;50.658;14.004;2022-12-19T14:04:02;21.75;32.78
65419;DHT22;52027;50.658;14.004;2022-12-19T14:06:30;21.71;32.77
65419;DHT22;52027;50.658;14.004;2022-12-19T14:09:05;21.71;32.75
65419;DHT22;52027;50.658;14.004;2022-12-19T14:11:36;21.73;32.87
65419;DHT22;52027;50.658;14.004;2022-12-19T14:14:05;21.73;32.82
65419;DHT22;52027;50.658;14.004;2022-12-19T14:16:52;21.73;32.98
65419;DHT22;52027;50.658;14.004;2022-12-19T14:19:22;21.72;32.91
65419;DHT22;52027;50.658;14.004;2022-12-19T14:21:48;21.72;33.04
65419;DHT22;52027;50.658;14.004;2022-12-19T14:24:19;21.69;33.07
65419;DHT22;52027;50.658;14.004;2022-12-19T14:26:49;21.72;32.97
65419;DHT22;52027;50.658;14.004;2022-12-19T14:29:22;21.71;32.85
65419;DHT22;52027;50.658;14.004;2022-12-19T14:31:48;21.67;33.00
65419;DHT22;52027;50.658;14.004;2022-12-19T14:34:23;21.69;32.99
65419;DHT22;52027;50.658;14.004;2022-12-19T14:36:54;21.69;33.02
65419;DHT22;52027;50.658;14.004;2022-12-19T14:39:22;21.65;33.05
65419;DHT22;52027;50.658;14.004;2022-12-19T14:41:51;21.65;33.07
65419;DHT22;52027;50.658;14.004;2022-12-19T14:44:49;21.67;33.00
65419;DHT22;52027;50.658;14.004;2022-12-19T14:47:36;21.66;33.17
65419;DHT22;52027;50.658;14.004;2022-12-19T14:50:32;21.65;33.08
65419;DHT22;52027;50.658;14.004;2022-12-19T14:53:28;21.62;33.02
65419;DHT22;52027;50.658;14.004;2022-12-19T14:56:13;21.62;33.20
65419;DHT22;52027;50.658;14.004;2022-12-19T14:58:39;21.63;33.03
65419;DHT22;52027;50.658;14.004;2022-12-19T15:01:05;21.59;33.06
65419;DHT22;52027;50.658;14.004;2022-12-19T15:03:49;21.56;32.88
65419;DHT22;52027;50.658;14.004;2022-12-19T15:06:18;21.56;32.98
65419;DHT22;52027;50.658;14.004;2022-12-19T15:08:44;21.58;32.97
65419;DHT22;52027;50.658;14.004;2022-12-19T15:11:27;21.55;32.94
65419;DHT22;52027;50.658;14.004;2022-12-19T15:14:12;21.55;32.90
65419;DHT22;52027;50.658;14.004;2022-12-19T15:16:37;21.56;32.92
65419;DHT22;52027;50.658;14.004;2022-12-19T15:19:10;21.56;32.83
65419;DHT22;52027;50.658;14.004;2022-12-19T15:21:35;21.53;32.81
65419;DHT22;52027;50.658;14.004;2022-12-19T15:24:01;21.52;32.81
65419;DHT22;52027;50.658;14.004;2022-12-19T15:26:32;21.53;32.83
65419;DHT22;52027;50.658;14.004;2022-12-19T15:28:58;21.55;32.83
65419;DHT22;52027;50.658;14.004;2022-12-19T15:31:34;21.53;32.75
65419;DHT22;52027;50.658;14.004;2022-12-19T15:34:11;21.55;32.64
65419;DHT22;52027;50.658;14.004;2022-12-19T15:36:43;21.52;32.61
65419;DHT22;52027;50.658;14.004;2022-12-19T15:39:09;21.52;32.50
65419;DHT22;52027;50.658;14.004;2022-12-19T15:41:34;21.53;32.48
65419;DHT22;52027;50.658;14.004;2022-12-19T15:44:29;21.56;32.44
65419;DHT22;52027;50.658;14.004;2022-12-19T15:46:51;21.53;32.39
65419;DHT22;52027;50.658;14.004;2022-12-19T15:49:18;21.53;32.34
65419;DHT22;52027;50.658;14.004;2022-12-19T15:51:44;21.52;32.31
65419;DHT22;52027;50.658;14.004;2022-12-19T15:54:11;21.52;32.42
65419;DHT22;52027;50.658;14.004;2022-12-19T15:56:45;21.56;32.26
65419;DHT22;52027;50.658;14.004;2022-12-19T15:59:24;21.53;32.28
65419;DHT22;52027;50.658;14.004;2022-12-19T16:01:51;21.51;32.23
65419;DHT22;52027;50.658;14.004;2022-12-19T16:04:17;21.51;32.22
65419;DHT22;52027;50.658;14.004;2022-12-19T16:06:42;21.51;32.26
65419;DHT22;52027;50.658;14.004;2022-12-19T16:09:22;21.49;32.17
65419;DHT22;52027;50.658;14.004;2022-12-19T16:11:49;21.52;32.24
65419;DHT22;52027;50.658;14.004;2022-12-19T16:14:15;21.49;32.18
65419;DHT22;52027;50.658;14.004;2022-12-19T16:16:40;21.51;32.15
65419;DHT22;52027;50.658;14.004;2022-12-19T16:19:29;21.49;32.15
65419;DHT22;52027;50.658;14.004;2022-12-19T16:21:56;21.48;32.09
65419;DHT22;52027;50.658;14.004;2022-12-19T16:24:22;21.48;32.13
65419;DHT22;52027;50.658;14.004;2022-12-19T16:26:52;21.46;32.08
65419;DHT22;52027;50.658;14.004;2022-12-19T16:29:24;21.46;32.10
65419;DHT22;52027;50.658;14.004;2022-12-19T16:31:50;21.45;32.05
65419;DHT22;52027;50.658;14.004;2022-12-19T16:34:18;21.44;32.13
65419;DHT22;52027;50.658;14.004;2022-12-19T16:36:44;21.42;32.06
65419;DHT22;52027;50.658;14.004;2022-12-19T16:39:10;21.42;32.04
65419;DHT22;52027;50.658;14.004;2022-12-19T16:41:36;21.42;32.05
65419;DHT22;52027;50.658;14.004;2022-12-19T16:44:01;21.41;32.11
65419;DHT22;52027;50.658;14.004;2022-12-19T16:46:26;21.39;32.06
65419;DHT22;52027;50.658;14.004;2022-12-19T16:48:55;21.38;32.05
65419;DHT22;52027;50.658;14.004;2022-12-19T16:51:26;21.38;32.05
65419;DHT22;52027;50.658;14.004;2022-12-19T16:53:54;21.38;32.01
65419;DHT22;52027;50.658;14.004;2022-12-19T16:56:28;21.37;32.04
65419;DHT22;52027;50.658;14.004;2022-12-19T16:58:55;21.35;31.99
65419;DHT22;52027;50.658;14.004;2022-12-19T17:01:21;21.37;31.96
65419;DHT22;52027;50.658;14.004;2022-12-19T17:03:46;21.35;31.95
65419;DHT22;52027;50.658;14.004;2022-12-19T17:06:13;21.35;32.00
65419;DHT22;52027;50.658;14.004;2022-12-19T17:08:39;21.37;31.95
65419;DHT22;52027;50.658;14.004;2022-12-19T17:11:08;21.34;31.90
65419;DHT22;52027;50.658;14.004;2022-12-19T17:13:35;21.35;31.95
65419;DHT22;52027;50.658;14.004;2022-12-19T17:16:02;21.34;31.96
65419;DHT22;52027;50.658;14.004;2022-12-19T17:18:32;21.32;31.96
65419;DHT22;52027;50.658;14.004;2022-12-19T17:20:58;21.28;31.90
65419;DHT22;52027;50.658;14.004;2022-12-19T17:23:25;21.34;31.94
65419;DHT22;52027;50.658;14.004;2022-12-19T17:25:53;21.32;31.90
65419;DHT22;52027;50.658;14.004;2022-12-19T17:28:22;21.30;31.91
65419;DHT22;52027;50.658;14.004;2022-12-19T17:30:53;21.31;31.87
65419;DHT22;52027;50.658;14.004;2022-12-19T17:33:31;21.30;31.90
65419;DHT22;52027;50.658;14.004;2022-12-19T17:35:59;21.27;31.85
65419;DHT22;52027;50.658;14.004;2022-12-19T17:38:24;21.28;31.86
65419;DHT22;52027;50.658;14.004;2022-12-19T17:40:51;21.27;31.88
65419;DHT22;52027;50.658;14.004;2022-12-19T17:43:16;21.27;31.86
65419;DHT22;52027;50.658;14.004;2022-12-19T17:45:42;21.25;31.83
65419;DHT22;52027;50.658;14.004;2022-12-19T17:50:44;21.24;31.86
65419;DHT22;52027;50.658;14.004;2022-12-19T17:53:13;21.23;31.81
65419;DHT22;52027;50.658;14.004;2022-12-19T17:55:39;21.23;31.86
65419;DHT22;52027;50.658;14.004;2022-12-19T17:58:04;21.21;31.82
65419;DHT22;52027;50.658;14.004;2022-12-19T18:00:31;21.20;31.78
65419;DHT22;52027;50.658;14.004;2022-12-19T18:03:01;21.23;31.76
65419;DHT22;52027;50.658;14.004;2022-12-19T18:05:32;21.21;31.76
65419;DHT22;52027;50.658;14.004;2022-12-19T18:07:57;21.20;31.79
65419;DHT22;52027;50.658;14.004;2022-12-19T18:10:25;21.20;31.81
65419;DHT22;52027;50.658;14.004;2022-12-19T18:12:51;21.18;31.79